Weather Underground History

Daily Summary for September 21, 2018 Units:  Metric    English   Both
« Previous Day
Next Day »
Daily Weekly Monthly Yearly Custom
  Current: High: Low: Average:
Temperature: 8.8 °C 16.4 °C 8.8 °C 12.2 °C
Dew Point: 6.9 °C 15.2 °C 6.7 °C 10.4 °C
Humidity: 88% 93% 86% 89%
Wind Speed: 25.7km/h 38.6km/h 6.4km/h 19.5km/h
Wind Gust: 25.7km/h 53.1km/h - -
WindWest - - WSW
Pressure: 995.5 hPa 995.5 hPa 988.6 hPa -
Precipitation: 2.0 mm      
Historical Graphs
 
 
Tabular Data for September 21, 2018
Time Temperature Dew Point Pressure Wind Wind Speed Wind Gust Humidity Rainfall Rate (Hourly) solar
00:04 16.4 °C 15.1 °C 989.1 hPa SSW 20.9 km/h 35.4 km/h 92% 1.5 mm 0.00 W/m2
00:09 16.4 °C 15.1 °C 989.2 hPa SSW 25.7 km/h 38.6 km/h 92% 1.5 mm 0.00 W/m2
00:14 16.3 °C 15.2 °C 989.2 hPa SSW 17.7 km/h 17.7 km/h 93% 4.8 mm 0.00 W/m2
00:19 16.3 °C 15.2 °C 989.1 hPa SW 24.1 km/h 27.4 km/h 93% 3.3 mm 0.00 W/m2
00:24 16.3 °C 15.1 °C 989.1 hPa SW 16.1 km/h 25.7 km/h 93% 2.3 mm 0.00 W/m2
00:29 16.3 °C 15.1 °C 988.9 hPa WSW 25.7 km/h 40.2 km/h 93% 1.3 mm 0.00 W/m2
00:34 16.3 °C 15.1 °C 989.0 hPa West 11.3 km/h 35.4 km/h 93% 0.8 mm 0.00 W/m2
00:39 16.3 °C 15.1 °C 989.0 hPa SSW 12.9 km/h 17.7 km/h 93% 0.0 mm 0.00 W/m2
00:44 16.3 °C 15.1 °C 988.9 hPa SSW 6.4 km/h 29.0 km/h 93% 0.0 mm 0.00 W/m2
00:49 16.2 °C 15.1 °C 988.8 hPa WSW 24.1 km/h 27.4 km/h 93% 0.0 mm 0.00 W/m2
00:54 16.1 °C 15.0 °C 988.8 hPa WSW 27.4 km/h 38.6 km/h 93% 0.0 mm 0.00 W/m2
00:59 16.1 °C 14.9 °C 988.7 hPa WSW 16.1 km/h 35.4 km/h 93% 1.5 mm 0.00 W/m2
01:04 15.9 °C 14.8 °C 988.7 hPa SW 19.3 km/h 30.6 km/h 93% 2.8 mm 0.00 W/m2
01:09 15.7 °C 14.4 °C 988.6 hPa SW 17.7 km/h 25.7 km/h 92% 1.5 mm 0.00 W/m2
01:14 15.4 °C 14.0 °C 988.6 hPa SW 11.3 km/h 38.6 km/h 91% 1.0 mm 0.00 W/m2
01:19 15.3 °C 13.8 °C 988.6 hPa SW 32.2 km/h 32.2 km/h 91% 0.0 mm 0.00 W/m2
01:24 15.1 °C 13.5 °C 988.8 hPa SW 25.7 km/h 30.6 km/h 90% 0.0 mm 0.00 W/m2
01:29 14.9 °C 13.3 °C 988.7 hPa WSW 29.0 km/h 32.2 km/h 90% 0.0 mm 0.00 W/m2
01:34 14.7 °C 12.9 °C 988.9 hPa West 25.7 km/h 38.6 km/h 89% 0.0 mm 0.00 W/m2
01:39 14.5 °C 12.7 °C 988.8 hPa SW 14.5 km/h 30.6 km/h 89% 0.0 mm 0.00 W/m2
01:44 14.4 °C 12.7 °C 988.9 hPa WSW 38.6 km/h 38.6 km/h 89% 0.0 mm 0.00 W/m2
01:49 14.3 °C 12.4 °C 989.0 hPa West 14.5 km/h 38.6 km/h 88% 0.0 mm 0.00 W/m2
01:54 14.3 °C 12.3 °C 989.1 hPa WSW 22.5 km/h 38.6 km/h 88% 0.0 mm 0.00 W/m2
01:59 14.2 °C 12.3 °C 989.2 hPa WSW 17.7 km/h 41.8 km/h 88% 0.0 mm 0.00 W/m2
02:04 14.2 °C 12.1 °C 989.0 hPa WSW 20.9 km/h 29.0 km/h 87% 0.0 mm 0.00 W/m2
02:09 14.2 °C 12.0 °C 989.0 hPa WSW 27.4 km/h 35.4 km/h 87% 0.0 mm 0.00 W/m2
02:14 14.2 °C 11.9 °C 989.1 hPa SW 17.7 km/h 38.6 km/h 86% 0.0 mm 0.00 W/m2
02:19 14.0 °C 11.7 °C 989.1 hPa SW 27.4 km/h 29.0 km/h 86% 0.0 mm 0.00 W/m2
02:24 13.7 °C 11.5 °C 990.2 hPa West 19.3 km/h 38.6 km/h 87% 0.0 mm 0.00 W/m2
02:29 12.3 °C 10.1 °C 990.5 hPa WNW 24.1 km/h 40.2 km/h 86% 3.0 mm 0.00 W/m2
02:34 11.4 °C 9.5 °C 990.7 hPa WNW 22.5 km/h 22.5 km/h 88% 1.5 mm 0.00 W/m2
02:39 10.9 °C 9.0 °C 990.9 hPa WSW 11.3 km/h 24.1 km/h 88% 0.8 mm 0.00 W/m2
02:44 10.6 °C 8.8 °C 991.1 hPa WNW 12.9 km/h 27.4 km/h 89% 0.0 mm 0.00 W/m2
02:49 10.3 °C 8.5 °C 991.3 hPa WNW 8.0 km/h 24.1 km/h 89% 0.0 mm 0.00 W/m2
02:54 9.9 °C 8.1 °C 991.5 hPa WNW 12.9 km/h 32.2 km/h 88% 0.0 mm 0.00 W/m2
02:59 9.7 °C 7.6 °C 991.6 hPa West 14.5 km/h 38.6 km/h 87% 0.0 mm 0.00 W/m2
03:04 9.5 °C 7.3 °C 991.9 hPa WNW 35.4 km/h 53.1 km/h 86% 0.0 mm 0.00 W/m2
03:09 9.4 °C 7.2 °C 992.3 hPa West 24.1 km/h 37.0 km/h 86% 0.0 mm 0.00 W/m2
03:14 9.2 °C 7.2 °C 992.6 hPa West 14.5 km/h 33.8 km/h 87% 0.0 mm 0.00 W/m2
03:19 9.1 °C 7.1 °C 992.7 hPa WNW 17.7 km/h 27.4 km/h 87% 0.0 mm 0.00 W/m2
03:24 9.0 °C 6.9 °C 992.9 hPa WSW 12.9 km/h 29.0 km/h 87% 0.0 mm 0.00 W/m2
03:29 8.9 °C 6.8 °C 993.0 hPa WNW 12.9 km/h 27.4 km/h 87% 0.0 mm 0.00 W/m2
03:34 8.9 °C 6.8 °C 993.2 hPa WNW 16.1 km/h 32.2 km/h 87% 0.0 mm 0.00 W/m2
03:39 8.9 °C 7.1 °C 993.3 hPa WSW 14.5 km/h 25.7 km/h 88% 0.0 mm 0.00 W/m2
03:44 9.0 °C 7.1 °C 993.5 hPa WNW 11.3 km/h 22.5 km/h 88% 0.0 mm 0.00 W/m2
03:49 8.9 °C 7.2 °C 993.7 hPa West 19.3 km/h 25.7 km/h 89% 0.0 mm 0.00 W/m2
03:54 8.9 °C 7.2 °C 993.8 hPa West 20.9 km/h 30.6 km/h 89% 0.0 mm 0.00 W/m2
03:59 9.0 °C 7.1 °C 994.0 hPa West 22.5 km/h 38.6 km/h 88% 0.0 mm 0.00 W/m2
04:04 9.1 °C 7.2 °C 994.2 hPa WSW 25.7 km/h 40.2 km/h 88% 0.0 mm 0.00 W/m2
04:09 9.1 °C 7.1 °C 994.3 hPa West 14.5 km/h 29.0 km/h 87% 0.0 mm 0.00 W/m2
04:14 9.1 °C 7.1 °C 994.5 hPa West 20.9 km/h 32.2 km/h 87% 0.0 mm 0.00 W/m2
04:19 9.0 °C 6.9 °C 994.6 hPa West 20.9 km/h 22.5 km/h 87% 0.0 mm 0.00 W/m2
04:24 8.9 °C 6.8 °C 994.6 hPa WNW 11.3 km/h 37.0 km/h 87% 0.0 mm 0.00 W/m2
04:29 8.8 °C 6.8 °C 994.9 hPa WSW 14.5 km/h 40.2 km/h 87% 0.0 mm 0.00 W/m2
04:34 8.8 °C 6.8 °C 995.0 hPa West 19.3 km/h 27.4 km/h 87% 0.0 mm 0.00 W/m2
04:39 8.8 °C 6.8 °C 995.0 hPa WSW 16.1 km/h 29.0 km/h 87% 0.0 mm 0.00 W/m2
04:44 8.9 °C 6.7 °C 995.2 hPa West 12.9 km/h 27.4 km/h 86% 0.0 mm 0.00 W/m2
04:49 8.8 °C 6.8 °C 995.2 hPa WSW 25.7 km/h 29.0 km/h 87% 0.0 mm 0.00 W/m2
04:54 8.8 °C 6.8 °C 995.3 hPa West 16.1 km/h 30.6 km/h 87% 0.0 mm 0.00 W/m2
04:59 8.8 °C 6.8 °C 995.5 hPa West 27.4 km/h 35.4 km/h 87% 0.0 mm 0.00 W/m2
05:04 8.8 °C 6.9 °C 995.5 hPa West 25.7 km/h 25.7 km/h 88% 0.0 mm 0.00 W/m2
Compliments of Weather Underground - 2.75 mb